Accueil
METAR-TAF:

METAR-TAF

Aéroports :

Base aérienne Volkel-Uden

Uden, Pays-Bas

latitude: 51-39N, longitude: 005-42E, altitude: 22 m

Observation

Le bulletin a été fait il y a 25 minutes, à 18:55 UTC
Vent 3 kt de ouest/nord-ouest, variant entre ouest et nord
Température 24°C
Humidité 61%
Pression 1017 hPa
Visibilité 10 km ou plus

METAR: EHVK 201855Z AUTO 30003KT 280V360 9999 NCD 24/16 Q1017 BLU

Heure: 21:20 (19:20 UTC)

Prévision

Le bulletin a été fait il y a 10 heures et 33 minutes, à 08:47 UTC
Prévision valable du 20 à 09 UTC au 20 à 21 UTC
Vent 10 kt de sud/sud-ouest
Visibilité 10 km ou plus
Quelques nuages à une hauteur de 1300 ft
Ciel couvert à une hauteur de 1500 ft
Evoluant progressivement
du 20 à 09 UTC au 20 à 11 UTC
Nuages épars à une hauteur de 2500 ft

TAF: EHVK 200847Z 2009/2021 21010KT 9999 FEW013 OVC015 BECMG 2009/2011 SCT025

Observations et prévisions météorologiques de plus de 4000 aéroports (messages METAR et TAF).

Les stations disponibles sont représentées par des disques jaunes et rouges sur la carte.

Passer la souris dessus pour voir le nom de la station.

Cliquer dessus pour voir les observations et prévisions météorologiques.

Pour changer de carte: cliquez sur les boutons verts avec une croix noire pour zoomer, sur le bouton vert avec un tiret pour effectuer un zoom arrière, ou sur les flèches vertes pour les cartes adjacentes.


METAR-TAF: